createdAt,value
2018-12-18T00:01:10.672Z,23.43
2018-12-18T00:03:39.601Z,23.60
2018-12-18T00:06:08.570Z,24.43
2018-12-18T00:08:37.333Z,21.73
2018-12-18T00:11:08.111Z,22.70
2018-12-18T00:13:36.864Z,24.07
2018-12-18T00:16:06.113Z,20.40
2018-12-18T00:18:34.865Z,21.73
2018-12-18T00:21:03.637Z,24.10
2018-12-18T00:23:32.335Z,24.03
2018-12-18T00:26:01.117Z,22.83
2018-12-18T00:28:29.890Z,19.97
2018-12-18T00:30:58.690Z,23.03
2018-12-18T00:33:27.421Z,22.60
2018-12-18T00:35:56.229Z,22.57
2018-12-18T00:38:24.962Z,23.17
2018-12-18T00:40:53.757Z,23.07
2018-12-18T00:43:22.469Z,21.17
2018-12-18T00:45:51.817Z,21.60
2018-12-18T00:48:20.600Z,23.83
2018-12-18T00:50:49.420Z,21.90
2018-12-18T00:53:18.137Z,23.80
2018-12-18T00:55:46.899Z,24.33
2018-12-18T00:58:15.612Z,24.13
2018-12-18T01:00:44.372Z,23.23
2018-12-18T01:03:13.137Z,22.30
2018-12-18T01:05:42.370Z,20.27
2018-12-18T01:08:11.075Z,19.70
2018-12-18T01:10:39.840Z,21.47
2018-12-18T01:13:08.757Z,22.30
2018-12-18T01:15:37.453Z,24.27
2018-12-18T01:18:06.146Z,23.53
2018-12-18T01:20:34.827Z,23.23
2018-12-18T01:23:03.590Z,24.17
2018-12-18T01:25:32.305Z,26.70
2018-12-18T01:28:00.987Z,24.20
2018-12-18T01:30:29.766Z,24.80
2018-12-18T01:32:58.489Z,28.83
2018-12-18T01:35:27.182Z,32.03
2018-12-18T01:37:55.906Z,28.27
2018-12-18T01:40:24.659Z,26.33
2018-12-18T01:42:53.351Z,28.57
2018-12-18T01:45:22.744Z,27.90
2018-12-18T01:47:51.528Z,25.90
2018-12-18T01:50:20.229Z,28.87
2018-12-18T01:52:48.981Z,24.57
2018-12-18T01:55:17.764Z,26.20
2018-12-18T01:57:46.535Z,24.63
2018-12-18T02:00:15.437Z,30.50
2018-12-18T02:02:44.263Z,28.13
2018-12-18T02:05:13.483Z,29.53
2018-12-18T02:07:42.233Z,30.70
2018-12-18T02:10:11.053Z,30.37
2018-12-18T02:12:39.772Z,32.27
2018-12-18T02:15:08.935Z,31.47
2018-12-18T02:17:37.671Z,31.50
2018-12-18T02:20:07.871Z,28.00
2018-12-18T02:22:37.123Z,31.73
2018-12-18T02:25:07.448Z,30.43
2018-12-18T02:27:36.152Z,30.73
2018-12-18T02:30:09.295Z,33.17
2018-12-18T02:32:37.940Z,30.73
2018-12-18T02:35:07.364Z,30.23
2018-12-18T02:37:36.109Z,28.77
2018-12-18T02:40:05.671Z,30.43
2018-12-18T02:42:34.409Z,29.30
2018-12-18T02:45:03.183Z,28.20
2018-12-18T02:47:31.939Z,30.17
2018-12-18T02:50:01.131Z,29.40
2018-12-18T02:52:29.944Z,31.33
2018-12-18T02:54:58.738Z,29.63
2018-12-18T02:57:27.472Z,25.97
2018-12-18T02:59:56.220Z,28.67
2018-12-18T03:02:24.975Z,29.90
2018-12-18T03:04:53.793Z,28.70
2018-12-18T03:07:22.603Z,31.27
2018-12-18T03:09:51.365Z,33.10
2018-12-18T03:12:21.235Z,32.10
2018-12-18T03:14:50.021Z,37.37
2018-12-18T03:17:19.245Z,32.83
2018-12-18T03:19:47.983Z,26.67
2018-12-18T03:22:16.747Z,27.87
2018-12-18T03:24:45.567Z,29.37
2018-12-18T03:27:14.254Z,28.13
2018-12-18T03:29:43.019Z,28.23
2018-12-18T03:32:16.964Z,28.10
2018-12-18T03:34:45.989Z,29.20
2018-12-18T03:37:14.729Z,28.63
2018-12-18T03:39:43.487Z,24.00
2018-12-18T03:42:12.215Z,27.80
2018-12-18T03:44:41.017Z,27.87
2018-12-18T03:47:09.775Z,29.50
2018-12-18T03:49:38.449Z,31.90
2018-12-18T03:52:07.888Z,26.00
2018-12-18T03:54:36.595Z,28.50
2018-12-18T03:57:05.328Z,29.00
2018-12-18T03:59:34.036Z,27.60
2018-12-18T04:02:02.762Z,25.43
2018-12-18T04:04:35.532Z,26.73
2018-12-18T04:07:03.088Z,26.27
2018-12-18T04:09:31.842Z,31.53
2018-12-18T04:12:15.580Z,27.00
2018-12-18T04:14:44.420Z,31.93
2018-12-18T04:17:13.192Z,30.23
2018-12-18T04:19:41.909Z,31.27
2018-12-18T04:22:10.654Z,28.90
2018-12-18T04:24:39.442Z,26.97
2018-12-18T04:27:08.246Z,28.77
2018-12-18T04:29:36.947Z,29.23
2018-12-18T04:32:05.764Z,31.27
2018-12-18T04:34:42.643Z,28.83
2018-12-18T04:37:06.209Z,30.70
2018-12-18T04:39:34.932Z,32.10
2018-12-18T04:42:03.685Z,28.00
2018-12-18T04:44:32.454Z,30.07
2018-12-18T04:47:01.306Z,28.70
2018-12-18T04:49:30.049Z,34.97
2018-12-18T04:51:58.774Z,32.03
2018-12-18T04:54:27.524Z,31.43
2018-12-18T04:56:56.970Z,33.33
2018-12-18T04:59:25.721Z,31.77
2018-12-18T05:01:55.028Z,35.57
2018-12-18T05:04:23.740Z,34.77
2018-12-18T05:06:52.466Z,35.23
2018-12-18T05:09:21.319Z,33.73
2018-12-18T05:11:50.018Z,33.13
2018-12-18T05:14:18.778Z,33.07
2018-12-18T05:16:47.584Z,31.87
2018-12-18T05:19:16.315Z,31.43
2018-12-18T05:21:45.019Z,35.30
2018-12-18T05:24:13.872Z,31.37
2018-12-18T05:26:42.644Z,33.97
2018-12-18T05:29:12.606Z,35.27
2018-12-18T05:31:41.402Z,35.60
2018-12-18T05:34:10.119Z,34.50
2018-12-18T05:36:38.933Z,36.30
2018-12-18T05:39:08.019Z,32.90
2018-12-18T05:41:37.284Z,37.70
2018-12-18T05:44:05.938Z,34.07
2018-12-18T05:46:34.685Z,31.90
2018-12-18T05:49:03.414Z,34.00
2018-12-18T05:51:32.066Z,34.37
2018-12-18T05:54:00.704Z,36.10
2018-12-18T05:56:29.377Z,33.10
2018-12-18T05:58:58.200Z,33.70
2018-12-18T06:01:26.880Z,33.80
2018-12-18T06:03:55.577Z,31.00
2018-12-18T06:06:24.293Z,38.27
2018-12-18T06:08:53.017Z,34.90
2018-12-18T06:11:21.738Z,33.97
2018-12-18T06:13:50.487Z,38.43
2018-12-18T06:16:19.216Z,35.47
2018-12-18T06:18:47.940Z,42.23
2018-12-18T06:21:17.414Z,34.53
2018-12-18T06:23:46.157Z,36.13
2018-12-18T06:26:14.954Z,35.57
2018-12-18T06:28:43.712Z,37.27
2018-12-18T06:31:12.416Z,33.03
2018-12-18T06:33:41.071Z,39.67
2018-12-18T06:36:09.815Z,33.43
2018-12-18T06:38:38.610Z,35.17
2018-12-18T06:41:07.339Z,36.97
2018-12-18T06:43:36.039Z,37.57
2018-12-18T06:46:04.789Z,37.93
2018-12-18T06:48:33.508Z,42.27
2018-12-18T06:51:02.182Z,38.37
2018-12-18T06:53:30.819Z,36.67
2018-12-18T06:55:59.523Z,45.20
2018-12-18T06:58:28.162Z,42.07
2018-12-18T07:00:56.982Z,42.13
2018-12-18T07:03:25.687Z,43.43
2018-12-18T07:05:54.632Z,39.77
2018-12-18T07:08:23.368Z,42.53
2018-12-18T07:10:52.257Z,40.53
2018-12-18T07:13:20.937Z,39.67
2018-12-18T07:15:49.750Z,33.83
2018-12-18T07:18:18.497Z,35.20
2018-12-18T07:20:47.198Z,37.90
2018-12-18T07:23:16.511Z,34.63
2018-12-18T07:25:45.237Z,33.23
2018-12-18T07:28:13.887Z,34.97
2018-12-18T07:30:42.877Z,34.47
2018-12-18T07:33:11.559Z,31.93
2018-12-18T07:35:40.270Z,36.67
2018-12-18T07:38:08.970Z,36.30
2018-12-18T07:40:37.735Z,34.23
2018-12-18T07:43:06.470Z,35.23
2018-12-18T07:45:35.387Z,38.27
2018-12-18T07:48:04.204Z,39.63
2018-12-18T07:50:32.966Z,37.57
2018-12-18T07:53:01.776Z,37.37
2018-12-18T07:55:30.563Z,37.57
2018-12-18T07:57:59.301Z,36.47
2018-12-18T08:00:28.244Z,35.70
2018-12-18T08:02:56.970Z,31.83
2018-12-18T08:05:29.850Z,38.90
2018-12-18T08:07:57.110Z,39.07
2018-12-18T08:10:25.812Z,33.60
2018-12-18T08:12:54.574Z,31.00
2018-12-18T08:15:23.290Z,32.43
2018-12-18T08:17:52.306Z,28.73
2018-12-18T08:20:21.253Z,32.23
2018-12-18T08:22:49.944Z,31.47
2018-12-18T08:25:18.702Z,33.90
2018-12-18T08:27:47.377Z,35.40
2018-12-18T08:30:16.329Z,32.40
2018-12-18T08:32:45.046Z,34.87
2018-12-18T08:35:13.847Z,34.90
2018-12-18T08:37:42.602Z,36.93
2018-12-18T08:40:11.183Z,39.27
2018-12-18T08:42:41.377Z,38.33
2018-12-18T08:45:10.884Z,37.67
2018-12-18T08:47:39.621Z,38.30
2018-12-18T08:50:09.637Z,37.40
2018-12-18T08:52:38.381Z,35.40
2018-12-18T08:55:08.050Z,36.77
2018-12-18T08:57:36.742Z,40.13
2018-12-18T09:00:11.307Z,36.73
2018-12-18T09:02:40.014Z,36.53
2018-12-18T09:05:09.278Z,36.00
2018-12-18T09:07:38.077Z,34.00
2018-12-18T09:10:09.319Z,34.87
2018-12-18T09:12:38.034Z,35.10
2018-12-18T09:17:16.078Z,31.27
2018-12-18T09:19:44.882Z,32.50
2018-12-18T09:22:13.755Z,29.87
2018-12-18T09:24:42.522Z,32.00
2018-12-18T09:27:11.684Z,31.17
2018-12-18T09:29:40.452Z,35.00
2018-12-18T09:32:09.183Z,29.90
2018-12-18T09:34:38.192Z,31.73
2018-12-18T09:37:06.955Z,30.13
2018-12-18T09:39:41.898Z,30.83
2018-12-18T09:42:17.042Z,34.87
2018-12-18T09:44:45.795Z,34.60
2018-12-18T09:47:14.466Z,34.43
2018-12-18T09:49:43.199Z,36.53
2018-12-18T09:52:12.002Z,35.20
2018-12-18T09:54:40.757Z,34.07
2018-12-18T09:57:14.860Z,31.23
2018-12-18T09:59:43.585Z,38.70
2018-12-18T10:02:12.414Z,32.27
2018-12-18T10:04:41.165Z,33.63
2018-12-18T10:07:09.874Z,35.23
2018-12-18T10:09:38.640Z,35.47
2018-12-18T10:12:07.389Z,31.00
2018-12-18T10:14:36.112Z,35.90
2018-12-18T10:17:05.011Z,33.50
2018-12-18T10:19:33.711Z,31.50
2018-12-18T10:22:02.428Z,36.17
2018-12-18T10:24:31.299Z,37.83
2018-12-18T10:27:00.013Z,38.00
2018-12-18T10:29:28.894Z,34.30
2018-12-18T10:31:57.618Z,34.73
2018-12-18T10:34:26.581Z,37.77
2018-12-18T10:36:55.332Z,36.60
2018-12-18T10:39:24.110Z,38.50
2018-12-18T10:41:52.888Z,39.50
2018-12-18T10:44:22.470Z,37.70
2018-12-18T10:46:51.260Z,34.53
2018-12-18T10:49:20.000Z,31.43
2018-12-18T10:51:48.696Z,40.70
2018-12-18T10:54:17.430Z,33.83
2018-12-18T10:56:46.221Z,36.30
2018-12-18T10:59:14.986Z,38.40
2018-12-18T11:01:48.064Z,36.37
2018-12-18T11:04:16.849Z,34.20
2018-12-18T11:06:51.711Z,35.67
2018-12-18T11:09:20.505Z,37.50
2018-12-18T11:11:49.301Z,33.67
2018-12-18T11:14:18.119Z,37.33
2018-12-18T11:16:46.944Z,34.33
2018-12-18T11:19:15.827Z,33.67
2018-12-18T11:21:44.653Z,32.90
2018-12-18T11:24:13.481Z,32.30
2018-12-18T11:26:42.220Z,33.40
2018-12-18T11:29:10.934Z,34.07
2018-12-18T11:31:39.726Z,34.00
2018-12-18T11:34:08.451Z,34.10
2018-12-18T11:36:37.239Z,35.83
2018-12-18T11:39:07.666Z,31.33
2018-12-18T11:41:36.527Z,35.53
2018-12-18T11:44:05.325Z,30.57
2018-12-18T11:46:34.161Z,31.93
2018-12-18T11:49:02.997Z,31.10
2018-12-18T11:51:31.745Z,33.73
2018-12-18T11:54:00.556Z,34.40
2018-12-18T11:56:29.196Z,29.37
2018-12-18T11:58:58.425Z,30.93
2018-12-18T12:01:27.160Z,30.80
2018-12-18T12:03:55.887Z,35.40
2018-12-18T12:06:24.744Z,33.00
2018-12-18T12:08:53.478Z,34.40
2018-12-18T12:11:22.326Z,32.83
2018-12-18T12:13:51.218Z,34.60
2018-12-18T12:16:19.969Z,37.23
2018-12-18T12:18:48.691Z,35.70
2018-12-18T12:21:17.606Z,40.57
2018-12-18T12:23:46.414Z,34.23
2018-12-18T12:26:20.365Z,37.63
2018-12-18T12:28:49.208Z,37.80
2018-12-18T12:31:17.960Z,40.70
2018-12-18T12:33:46.618Z,33.27
2018-12-18T12:36:15.358Z,37.43
2018-12-18T12:38:44.092Z,37.40
2018-12-18T12:41:13.255Z,33.93
2018-12-18T12:43:42.031Z,37.70
2018-12-18T12:46:10.726Z,34.17
2018-12-18T12:48:44.690Z,37.00
2018-12-18T12:51:13.535Z,38.23
2018-12-18T12:53:42.353Z,35.03
2018-12-18T12:56:11.010Z,39.33
2018-12-18T12:58:39.794Z,36.33
2018-12-18T13:01:08.550Z,37.97
2018-12-18T13:03:37.257Z,41.00
2018-12-18T13:06:09.414Z,39.00
2018-12-18T13:08:38.220Z,36.40
2018-12-18T13:11:07.777Z,34.30
2018-12-18T13:13:36.605Z,37.00
2018-12-18T13:16:05.380Z,37.83
2018-12-18T13:18:34.259Z,38.33
2018-12-18T13:21:03.088Z,42.70
2018-12-18T13:23:31.831Z,39.20
2018-12-18T13:26:00.685Z,44.27
2018-12-18T13:28:29.494Z,41.10
2018-12-18T13:30:58.350Z,43.93
2018-12-18T13:33:27.122Z,39.13
2018-12-18T13:35:55.906Z,43.00
2018-12-18T13:38:24.986Z,37.77
2018-12-18T13:40:54.213Z,38.93
2018-12-18T13:43:23.113Z,37.60
2018-12-18T13:45:52.187Z,39.07
2018-12-18T13:48:21.202Z,36.33
2018-12-18T13:50:50.113Z,41.33
2018-12-18T13:53:19.738Z,38.23
2018-12-18T13:55:48.500Z,40.20
2018-12-18T13:58:17.173Z,37.57
2018-12-18T14:00:45.936Z,40.10
2018-12-18T14:03:14.748Z,35.23
2018-12-18T14:05:43.782Z,40.77
2018-12-18T14:08:13.688Z,33.37
2018-12-18T14:10:42.766Z,39.40
2018-12-18T14:13:11.797Z,38.53
2018-12-18T14:15:40.636Z,37.97
2018-12-18T14:18:09.503Z,38.23
2018-12-18T14:20:38.435Z,36.17
2018-12-18T14:23:08.118Z,38.63
2018-12-18T14:25:37.652Z,36.17
2018-12-18T14:28:06.556Z,39.70
2018-12-18T14:30:35.457Z,40.23
2018-12-18T14:33:04.580Z,40.57
2018-12-18T14:35:33.312Z,41.63
2018-12-18T14:38:02.903Z,43.50
2018-12-18T14:40:31.691Z,38.07
2018-12-18T14:43:00.550Z,43.27
2018-12-18T14:45:29.320Z,41.23
2018-12-18T14:47:58.099Z,39.87
2018-12-18T14:50:27.274Z,39.37
2018-12-18T14:52:56.067Z,39.00
2018-12-18T14:55:24.787Z,38.10
2018-12-18T14:57:53.587Z,40.07
2018-12-18T15:00:22.326Z,36.60
2018-12-18T15:02:51.015Z,37.53
2018-12-18T15:05:19.768Z,37.53
2018-12-18T15:07:48.484Z,40.97
2018-12-18T15:10:17.329Z,40.87
2018-12-18T15:12:50.311Z,36.90
2018-12-18T15:15:19.352Z,39.57
2018-12-18T15:17:48.417Z,40.80
2018-12-18T15:20:17.143Z,36.53
2018-12-18T15:22:45.923Z,42.77
2018-12-18T15:25:14.653Z,40.63
2018-12-18T15:27:43.482Z,36.80
2018-12-18T15:30:12.427Z,42.07
2018-12-18T15:32:41.422Z,37.50
2018-12-18T15:35:10.672Z,35.30
2018-12-18T15:37:39.887Z,38.70
2018-12-18T15:40:09.100Z,34.53
2018-12-18T15:42:37.866Z,34.87
2018-12-18T15:45:08.412Z,39.97
2018-12-18T15:47:37.182Z,38.13
2018-12-18T15:50:08.117Z,35.77
2018-12-18T15:52:37.026Z,36.70
2018-12-18T15:55:06.231Z,36.80
2018-12-18T15:57:35.009Z,38.90
2018-12-18T16:00:12.125Z,36.57
2018-12-18T16:02:41.707Z,32.93
2018-12-18T16:05:10.440Z,34.47
2018-12-18T16:07:40.418Z,35.73
2018-12-18T16:10:09.652Z,39.40
2018-12-18T16:12:38.545Z,38.13
2018-12-18T16:15:08.183Z,40.63
2018-12-18T16:17:37.022Z,43.83
2018-12-18T16:20:06.727Z,48.33
2018-12-18T16:22:35.472Z,45.60
2018-12-18T16:25:04.773Z,45.17
2018-12-18T16:27:33.866Z,48.37
2018-12-18T16:30:02.718Z,46.43
2018-12-18T16:32:31.507Z,48.83
2018-12-18T16:35:00.281Z,54.40
2018-12-18T16:37:29.056Z,47.23
2018-12-18T16:39:57.853Z,48.13
2018-12-18T16:42:26.647Z,49.27
2018-12-18T16:44:55.394Z,44.83
2018-12-18T16:47:24.071Z,44.37
2018-12-18T16:49:52.894Z,47.83
2018-12-18T16:52:22.338Z,43.30
2018-12-18T16:54:51.203Z,44.63
2018-12-18T16:57:20.591Z,44.13
2018-12-18T16:59:49.305Z,49.17
2018-12-18T17:02:18.581Z,44.63
2018-12-18T17:04:47.341Z,45.43
2018-12-18T17:07:16.278Z,43.10
2018-12-18T17:09:45.092Z,48.87
2018-12-18T17:12:14.279Z,43.77
2018-12-18T17:14:43.071Z,44.03
2018-12-18T17:17:11.880Z,45.40
2018-12-18T17:19:40.676Z,43.50
2018-12-18T17:22:09.516Z,45.90
2018-12-18T17:24:38.263Z,44.07
2018-12-18T17:27:07.060Z,44.77
2018-12-18T17:29:35.874Z,45.40
2018-12-18T17:32:06.390Z,44.07
2018-12-18T17:34:35.172Z,41.30
2018-12-18T17:37:03.949Z,43.40
2018-12-18T17:39:32.643Z,39.53
2018-12-18T17:42:01.388Z,41.47
2018-12-18T17:44:30.163Z,38.20
2018-12-18T17:46:59.050Z,41.83
2018-12-18T17:49:27.854Z,37.23
2018-12-18T17:51:56.585Z,36.23
2018-12-18T17:54:25.341Z,40.37
2018-12-18T17:56:54.357Z,33.83
2018-12-18T17:59:23.207Z,37.90
2018-12-18T18:01:51.967Z,36.83
2018-12-18T18:04:20.699Z,35.53
2018-12-18T18:06:49.453Z,38.87
2018-12-18T18:09:18.212Z,37.80
2018-12-18T18:11:47.034Z,40.73
2018-12-18T18:14:16.210Z,40.73
2018-12-18T18:16:45.138Z,35.17
2018-12-18T18:19:13.992Z,36.60
2018-12-18T18:21:42.742Z,40.00
2018-12-18T18:24:11.491Z,43.40
2018-12-18T18:26:40.332Z,44.33
2018-12-18T18:29:09.107Z,43.77
2018-12-18T18:31:38.026Z,40.77
2018-12-18T18:34:06.847Z,39.13
2018-12-18T18:36:35.828Z,41.53
2018-12-18T18:39:07.973Z,40.23
2018-12-18T18:41:36.759Z,40.47
2018-12-18T18:44:06.180Z,36.33
2018-12-18T18:46:34.924Z,42.67
2018-12-18T18:49:04.149Z,41.63
2018-12-18T18:51:32.966Z,38.27
2018-12-18T18:54:01.727Z,37.70
2018-12-18T18:56:30.443Z,43.33
2018-12-18T18:59:00.243Z,39.37
2018-12-18T19:01:29.099Z,38.23
2018-12-18T19:03:58.749Z,35.73
2018-12-18T19:06:28.416Z,35.57
2018-12-18T19:08:57.309Z,38.40
2018-12-18T19:11:26.178Z,35.17
2018-12-18T19:13:54.940Z,34.53
2018-12-18T19:16:23.756Z,34.30
2018-12-18T19:18:52.671Z,34.63
2018-12-18T19:21:21.451Z,30.83
2018-12-18T19:23:50.301Z,35.23
2018-12-18T19:26:19.051Z,34.83
2018-12-18T19:28:50.368Z,35.53
2018-12-18T19:31:18.634Z,33.30
2018-12-18T19:33:47.409Z,35.40
2018-12-18T19:36:16.252Z,33.63
2018-12-18T19:38:45.017Z,35.10
2018-12-18T19:41:13.797Z,34.17
2018-12-18T19:43:42.609Z,32.53
2018-12-18T19:46:11.396Z,34.20
2018-12-18T19:48:40.627Z,35.73
2018-12-18T19:51:09.363Z,30.20
2018-12-18T19:53:38.113Z,34.70
2018-12-18T19:56:06.948Z,35.60
2018-12-18T19:58:35.690Z,31.00
2018-12-18T20:01:04.538Z,33.07
2018-12-18T20:03:33.351Z,34.37
2018-12-18T20:06:02.069Z,33.30
2018-12-18T20:08:30.866Z,31.00
2018-12-18T20:10:59.609Z,33.37
2018-12-18T20:13:28.375Z,32.60
2018-12-18T20:15:57.177Z,34.60
2018-12-18T20:18:25.959Z,29.47
2018-12-18T20:20:54.737Z,33.67
2018-12-18T20:23:23.462Z,31.93
2018-12-18T20:25:52.623Z,34.50
2018-12-18T20:28:21.350Z,28.77
2018-12-18T20:30:50.171Z,27.53
2018-12-18T20:33:18.891Z,32.03
2018-12-18T20:35:47.894Z,31.83
2018-12-18T20:38:17.163Z,30.87
2018-12-18T20:40:46.307Z,31.13
2018-12-18T20:43:14.986Z,35.27
2018-12-18T20:45:43.754Z,32.03
2018-12-18T20:48:12.912Z,32.80
2018-12-18T20:50:42.083Z,33.07
2018-12-18T20:53:10.896Z,33.33
2018-12-18T20:55:39.669Z,33.57
2018-12-18T20:58:08.519Z,32.07
2018-12-18T21:00:38.496Z,32.20
2018-12-18T21:03:07.271Z,34.27
2018-12-18T21:05:36.019Z,35.63
2018-12-18T21:08:04.764Z,33.53
2018-12-18T21:10:33.509Z,31.40
2018-12-18T21:13:07.459Z,31.73
2018-12-18T21:15:36.192Z,34.77
2018-12-18T21:18:04.975Z,31.57
2018-12-18T21:20:34.708Z,33.57
2018-12-18T21:23:03.433Z,34.20
2018-12-18T21:25:32.218Z,30.47
2018-12-18T21:28:01.046Z,30.30
2018-12-18T21:30:29.811Z,30.80
2018-12-18T21:32:58.633Z,28.73
2018-12-18T21:35:27.694Z,30.60
2018-12-18T21:37:56.347Z,27.60
2018-12-18T21:40:25.240Z,25.43
2018-12-18T21:42:53.953Z,30.53
2018-12-18T21:45:22.598Z,26.40
2018-12-18T21:47:51.324Z,27.13
2018-12-18T21:50:20.212Z,27.53
2018-12-18T21:52:50.185Z,27.80
2018-12-18T21:55:19.126Z,24.50
2018-12-18T21:57:48.660Z,28.13
2018-12-18T22:00:17.429Z,27.77
2018-12-18T22:02:46.607Z,25.43
2018-12-18T22:05:15.297Z,28.83
2018-12-18T22:07:44.055Z,25.93
2018-12-18T22:10:12.887Z,28.73
2018-12-18T22:12:41.747Z,25.83
2018-12-18T22:15:10.576Z,27.83
2018-12-18T22:17:39.315Z,28.40
2018-12-18T22:20:08.030Z,29.43
2018-12-18T22:22:36.862Z,26.27
2018-12-18T22:25:06.145Z,26.87
2018-12-18T22:27:34.900Z,28.30
2018-12-18T22:30:11.440Z,26.27
2018-12-18T22:32:40.293Z,29.73
2018-12-18T22:35:09.064Z,27.17
2018-12-18T22:37:37.765Z,26.23
2018-12-18T22:40:07.051Z,24.60
2018-12-18T22:42:35.836Z,25.50
2018-12-18T22:45:04.560Z,30.30
2018-12-18T22:47:33.271Z,26.07
2018-12-18T22:50:02.045Z,26.90
2018-12-18T22:52:30.715Z,28.80
2018-12-18T22:54:59.467Z,27.33
2018-12-18T22:57:28.305Z,25.60
2018-12-18T22:59:57.033Z,29.57
2018-12-18T23:02:25.795Z,30.53
2018-12-18T23:04:54.900Z,26.77
2018-12-18T23:07:23.963Z,26.80
2018-12-18T23:09:52.773Z,25.40
2018-12-18T23:12:21.665Z,25.00
2018-12-18T23:14:50.516Z,27.50
2018-12-18T23:17:19.258Z,27.63
2018-12-18T23:19:48.034Z,26.53
2018-12-18T23:22:18.094Z,28.43
2018-12-18T23:24:46.799Z,25.50
2018-12-18T23:27:15.556Z,26.40
2018-12-18T23:29:44.289Z,28.13
2018-12-18T23:32:13.035Z,22.97
2018-12-18T23:34:41.951Z,26.30
2018-12-18T23:37:10.818Z,25.80
2018-12-18T23:39:39.577Z,28.47
2018-12-18T23:42:08.411Z,26.00
2018-12-18T23:44:37.352Z,24.30
2018-12-18T23:47:06.206Z,24.37
2018-12-18T23:49:35.032Z,27.17
2018-12-18T23:52:13.781Z,30.43
2018-12-18T23:54:42.888Z,26.73
2018-12-18T23:57:11.560Z,27.77
2018-12-18T23:59:40.794Z,29.60
